createdAt,value
2022-11-09T00:01:04.603Z,27.98
2022-11-09T00:03:32.070Z,27.00
2022-11-09T00:06:01.063Z,25.65
2022-11-09T00:08:28.914Z,30.08
2022-11-09T00:11:02.632Z,31.35
2022-11-09T00:13:29.879Z,28.75
2022-11-09T00:16:00.379Z,25.77
2022-11-09T00:18:30.495Z,30.75
2022-11-09T00:20:57.749Z,29.40
2022-11-09T00:23:25.093Z,28.88
2022-11-09T00:25:52.364Z,28.33
2022-11-09T00:28:19.585Z,28.85
2022-11-09T00:30:47.868Z,28.83
2022-11-09T00:33:16.596Z,25.08
2022-11-09T00:35:44.048Z,29.55
2022-11-09T00:38:11.250Z,25.88
2022-11-09T00:40:38.855Z,27.45
2022-11-09T00:43:06.132Z,27.65
2022-11-09T00:45:33.256Z,29.83
2022-11-09T00:48:00.380Z,27.48
2022-11-09T00:50:27.844Z,25.67
2022-11-09T00:52:55.333Z,24.33
2022-11-09T00:55:24.031Z,29.83
2022-11-09T00:57:53.442Z,23.35
2022-11-09T01:00:24.476Z,25.05
2022-11-09T01:02:53.280Z,28.13
2022-11-09T01:05:20.519Z,28.83
2022-11-09T01:07:50.030Z,25.48
2022-11-09T01:10:17.398Z,26.55
2022-11-09T01:12:46.861Z,26.88
2022-11-09T01:15:15.489Z,26.73
2022-11-09T01:17:42.731Z,26.70
2022-11-09T01:20:11.350Z,25.45
2022-11-09T01:22:38.472Z,23.55
2022-11-09T01:25:06.854Z,24.80
2022-11-09T01:27:34.105Z,27.15
2022-11-09T01:30:01.222Z,27.15
2022-11-09T01:32:32.233Z,23.65
2022-11-09T01:34:59.439Z,23.30
2022-11-09T01:37:26.677Z,24.08
2022-11-09T01:39:53.845Z,27.77
2022-11-09T01:42:25.907Z,27.15
2022-11-09T01:45:18.029Z,30.80
2022-11-09T01:48:41.026Z,26.30
2022-11-09T01:51:25.219Z,25.20
2022-11-09T01:54:12.290Z,22.77
2022-11-09T01:56:40.501Z,25.73
2022-11-09T01:59:17.341Z,24.65
2022-11-09T02:01:45.741Z,23.85
2022-11-09T02:04:41.085Z,22.90
2022-11-09T02:07:11.424Z,25.20
2022-11-09T02:10:12.503Z,26.40
2022-11-09T02:12:40.632Z,22.50
2022-11-09T02:15:10.650Z,24.42
2022-11-09T02:17:41.237Z,24.80
2022-11-09T02:20:15.564Z,25.02
2022-11-09T02:22:42.911Z,23.42
2022-11-09T02:25:14.173Z,24.55
2022-11-09T02:27:44.253Z,23.55
2022-11-09T02:30:13.876Z,27.90
2022-11-09T02:32:41.237Z,26.20
2022-11-09T02:35:09.887Z,28.45
2022-11-09T02:37:50.100Z,23.95
2022-11-09T02:40:34.046Z,25.10
2022-11-09T02:43:02.207Z,28.50
2022-11-09T02:45:29.423Z,25.92
2022-11-09T02:47:56.708Z,24.92
2022-11-09T02:50:24.119Z,26.77
2022-11-09T02:52:51.348Z,25.63
2022-11-09T02:55:19.082Z,24.20
2022-11-09T02:57:46.613Z,25.23
2022-11-09T03:00:16.622Z,28.17
2022-11-09T03:02:45.911Z,27.00
2022-11-09T03:05:14.531Z,27.15
2022-11-09T03:07:43.767Z,31.75
2022-11-09T03:10:12.218Z,26.27
2022-11-09T03:12:39.592Z,23.52
2022-11-09T03:15:11.501Z,20.88
2022-11-09T03:17:42.944Z,25.05
2022-11-09T03:20:11.410Z,23.25
2022-11-09T03:22:39.806Z,22.25
2022-11-09T03:25:08.117Z,21.38
2022-11-09T03:27:35.371Z,25.48
2022-11-09T03:30:03.515Z,23.48
2022-11-09T03:32:31.191Z,23.38
2022-11-09T03:34:58.838Z,28.33
2022-11-09T03:37:26.201Z,28.60
2022-11-09T03:39:53.518Z,28.67
2022-11-09T03:42:20.781Z,21.95
2022-11-09T03:44:48.049Z,23.77
2022-11-09T03:47:15.372Z,25.17
2022-11-09T03:49:42.600Z,28.90
2022-11-09T03:52:09.790Z,26.95
2022-11-09T03:54:37.117Z,27.13
2022-11-09T03:57:04.349Z,26.23
2022-11-09T03:59:31.552Z,26.15
2022-11-09T04:01:58.809Z,25.75
2022-11-09T04:04:26.078Z,23.08
2022-11-09T04:06:53.361Z,28.83
2022-11-09T04:09:20.647Z,22.73
2022-11-09T04:11:47.807Z,32.22
2022-11-09T04:14:14.945Z,26.63
2022-11-09T04:16:42.212Z,27.55
2022-11-09T04:19:09.548Z,24.50
2022-11-09T04:21:36.715Z,28.48
2022-11-09T04:24:04.317Z,26.80
2022-11-09T04:26:31.592Z,26.80
2022-11-09T04:28:58.736Z,30.38
2022-11-09T04:31:28.141Z,26.40
2022-11-09T04:33:55.794Z,26.92
2022-11-09T04:36:23.177Z,26.50
2022-11-09T04:38:50.555Z,25.85
2022-11-09T04:41:17.967Z,27.85
2022-11-09T04:43:45.175Z,31.52
2022-11-09T04:46:12.384Z,26.67
2022-11-09T04:48:39.764Z,26.00
2022-11-09T04:51:10.481Z,27.00
2022-11-09T04:53:38.888Z,28.42
2022-11-09T04:56:07.975Z,29.73
2022-11-09T04:58:35.529Z,25.35
2022-11-09T05:01:09.330Z,30.60
2022-11-09T05:03:37.112Z,31.58
2022-11-09T05:06:23.688Z,27.83
2022-11-09T05:08:52.112Z,27.77
2022-11-09T05:11:19.337Z,29.20
2022-11-09T05:13:46.801Z,26.70
2022-11-09T05:16:14.843Z,26.95
2022-11-09T05:18:42.018Z,31.67
2022-11-09T05:21:09.678Z,27.77
2022-11-09T05:23:55.330Z,29.95
2022-11-09T05:26:22.910Z,30.40
2022-11-09T05:28:50.052Z,26.17
2022-11-09T05:31:17.195Z,29.67
2022-11-09T05:33:44.631Z,28.90
2022-11-09T05:36:11.808Z,28.75
2022-11-09T05:38:38.949Z,29.42
2022-11-09T05:41:06.161Z,30.70
2022-11-09T05:43:33.437Z,27.73
2022-11-09T05:46:05.453Z,31.95
2022-11-09T05:48:34.008Z,29.88
2022-11-09T05:51:06.713Z,32.25
2022-11-09T05:53:33.958Z,28.15
2022-11-09T05:56:09.315Z,31.83
2022-11-09T05:58:38.768Z,30.27
2022-11-09T06:01:09.961Z,29.52
2022-11-09T06:03:37.456Z,27.90
2022-11-09T06:06:09.095Z,24.60
2022-11-09T06:08:36.989Z,25.38
2022-11-09T06:11:09.381Z,23.85
2022-11-09T06:13:36.956Z,27.80
2022-11-09T06:16:06.374Z,26.13
2022-11-09T06:18:36.301Z,24.67
2022-11-09T06:21:06.004Z,25.38
2022-11-09T06:23:34.346Z,22.63
2022-11-09T06:26:10.351Z,25.15
2022-11-09T06:28:42.358Z,25.15
2022-11-09T06:31:15.816Z,26.35
2022-11-09T06:33:43.477Z,28.52
2022-11-09T06:36:11.526Z,24.77
2022-11-09T06:38:39.264Z,23.05
2022-11-09T06:41:06.737Z,30.15
2022-11-09T06:43:34.016Z,29.13
2022-11-09T06:46:05.318Z,29.83
2022-11-09T06:48:32.557Z,23.73
2022-11-09T06:51:05.384Z,23.27
2022-11-09T06:53:34.934Z,21.42
2022-11-09T06:56:05.190Z,29.35
2022-11-09T06:58:32.853Z,22.55
2022-11-09T07:01:00.397Z,22.45
2022-11-09T07:03:27.840Z,21.70
2022-11-09T07:05:55.033Z,22.95
2022-11-09T07:08:22.378Z,23.17
2022-11-09T07:10:49.631Z,26.17
2022-11-09T07:13:16.902Z,23.75
2022-11-09T07:15:44.382Z,23.42
2022-11-09T07:18:13.159Z,21.35
2022-11-09T07:20:40.439Z,23.48
2022-11-09T07:23:07.677Z,22.98
2022-11-09T07:25:35.108Z,26.27
2022-11-09T07:28:08.512Z,23.77
2022-11-09T07:30:39.203Z,28.00
2022-11-09T07:33:18.023Z,25.05
2022-11-09T07:35:46.701Z,26.60
2022-11-09T07:38:19.647Z,27.95
2022-11-09T07:40:47.000Z,25.90
2022-11-09T07:43:14.354Z,32.15
2022-11-09T07:45:43.054Z,27.02
2022-11-09T07:48:12.404Z,36.72
2022-11-09T07:50:41.324Z,30.98
2022-11-09T07:53:13.667Z,33.70
2022-11-09T07:55:41.836Z,35.50
2022-11-09T07:58:16.573Z,32.38
2022-11-09T08:00:44.561Z,36.30
2022-11-09T08:03:12.293Z,31.63
2022-11-09T08:05:39.838Z,29.70
2022-11-09T08:08:11.389Z,36.88
2022-11-09T08:10:39.739Z,33.75
2022-11-09T08:13:13.469Z,30.08
2022-11-09T08:15:42.344Z,27.27
2022-11-09T08:18:18.736Z,40.15
2022-11-09T08:20:47.065Z,26.60
2022-11-09T08:23:17.874Z,28.65
2022-11-09T08:25:45.987Z,27.45
2022-11-09T08:28:16.134Z,29.38
2022-11-09T08:30:45.415Z,29.60
2022-11-09T08:33:13.634Z,30.15
2022-11-09T08:35:40.846Z,27.10
2022-11-09T08:38:07.975Z,28.42
2022-11-09T08:40:35.207Z,35.60
2022-11-09T08:43:07.755Z,28.45
2022-11-09T08:45:38.746Z,35.03
2022-11-09T08:48:08.166Z,33.38
2022-11-09T08:50:37.144Z,30.30
2022-11-09T08:53:05.592Z,32.15
2022-11-09T08:55:33.029Z,34.50
2022-11-09T08:58:03.764Z,37.58
2022-11-09T09:00:31.422Z,33.63
2022-11-09T09:02:59.100Z,30.70
2022-11-09T09:05:26.680Z,32.28
2022-11-09T09:07:53.955Z,29.73
2022-11-09T09:10:21.182Z,30.95
2022-11-09T09:12:48.486Z,31.45
2022-11-09T09:15:15.855Z,33.50
2022-11-09T09:17:43.207Z,33.92
2022-11-09T09:20:11.132Z,33.95
2022-11-09T09:22:38.465Z,34.05
2022-11-09T09:25:06.934Z,38.42
2022-11-09T09:27:34.220Z,34.70
2022-11-09T09:30:01.487Z,35.08
2022-11-09T09:32:29.721Z,36.38
2022-11-09T09:34:57.078Z,38.03
2022-11-09T09:37:24.356Z,35.65
2022-11-09T09:39:51.626Z,34.00
2022-11-09T09:42:27.692Z,36.80
2022-11-09T09:45:24.819Z,39.13
2022-11-09T09:48:36.966Z,35.33
2022-11-09T09:51:32.765Z,37.83
2022-11-09T09:54:16.416Z,36.08
2022-11-09T09:56:47.399Z,34.90
2022-11-09T09:59:43.951Z,41.45
2022-11-09T10:04:50.096Z,36.03
2022-11-09T10:07:49.697Z,36.22
2022-11-09T10:10:44.578Z,37.40
2022-11-09T10:14:07.972Z,36.58
2022-11-09T10:17:16.513Z,36.70
2022-11-09T10:20:15.595Z,38.92
2022-11-09T10:23:42.586Z,40.78
2022-11-09T10:26:28.220Z,44.23
2022-11-09T10:29:16.159Z,46.70
2022-11-09T10:31:47.667Z,40.55
2022-11-09T10:34:29.910Z,38.83
2022-11-09T10:37:41.164Z,39.47
2022-11-09T10:40:35.288Z,39.60
2022-11-09T10:43:21.254Z,37.17
2022-11-09T10:46:09.172Z,41.10
2022-11-09T10:48:55.647Z,39.25
2022-11-09T10:51:48.049Z,38.05
2022-11-09T10:54:37.998Z,36.50
2022-11-09T10:57:25.630Z,37.28
2022-11-09T11:00:19.189Z,39.70
2022-11-09T11:03:36.483Z,39.47
2022-11-09T11:06:22.054Z,41.35
2022-11-09T11:09:07.578Z,33.67
2022-11-09T11:12:17.581Z,35.95
2022-11-09T11:15:26.286Z,41.83
2022-11-09T11:18:23.456Z,37.13
2022-11-09T11:21:21.719Z,39.47
2022-11-09T11:24:20.970Z,38.75
2022-11-09T11:27:34.820Z,36.40
2022-11-09T11:30:37.374Z,39.17
2022-11-09T11:33:23.925Z,38.22
2022-11-09T11:36:30.823Z,39.13
2022-11-09T11:43:29.521Z,37.92
2022-11-09T11:46:34.287Z,43.53
2022-11-09T11:50:02.750Z,35.67
2022-11-09T11:53:23.453Z,41.10
2022-11-09T11:56:35.073Z,42.60
2022-11-09T12:00:10.656Z,42.63
2022-11-09T12:04:06.479Z,40.97
2022-11-09T12:07:06.215Z,38.95
2022-11-09T12:10:25.096Z,43.42
2022-11-09T12:13:44.492Z,39.53
2022-11-09T12:17:11.682Z,41.22
2022-11-09T12:20:16.452Z,42.47
2022-11-09T12:23:39.131Z,42.85
2022-11-09T12:27:32.071Z,42.13
2022-11-09T12:30:28.334Z,40.97
2022-11-09T12:33:43.380Z,43.15
2022-11-09T12:36:57.188Z,45.30
2022-11-09T12:39:54.713Z,40.55
2022-11-09T12:42:58.076Z,37.25
2022-11-09T12:45:44.447Z,40.08
2022-11-09T12:48:35.316Z,48.17
2022-11-09T12:51:22.664Z,41.78
2022-11-09T12:54:11.654Z,44.95
2022-11-09T12:57:27.776Z,42.58
2022-11-09T13:00:35.440Z,43.35
2022-11-09T13:03:30.542Z,46.40
2022-11-09T13:06:27.666Z,43.80
2022-11-09T13:09:16.582Z,44.67
2022-11-09T13:12:27.213Z,47.97
2022-11-09T13:15:30.677Z,49.25
2022-11-09T13:18:51.352Z,48.70
2022-11-09T13:21:39.571Z,49.05
2022-11-09T13:24:51.790Z,49.92
2022-11-09T13:27:47.065Z,54.33
2022-11-09T13:30:43.789Z,44.35
2022-11-09T13:33:31.980Z,52.67
2022-11-09T13:36:19.867Z,55.50
2022-11-09T13:39:32.901Z,50.25
2022-11-09T13:42:36.618Z,49.60
2022-11-09T13:45:37.327Z,52.08
2022-11-09T13:48:38.983Z,49.63
2022-11-09T13:51:47.422Z,53.88
2022-11-09T13:54:37.397Z,48.40
2022-11-09T13:57:24.780Z,52.00
2022-11-09T14:00:25.024Z,50.95
2022-11-09T14:03:29.503Z,49.95
2022-11-09T14:06:15.228Z,51.72
2022-11-09T14:09:02.889Z,56.00
2022-11-09T14:12:42.047Z,54.03
2022-11-09T14:16:15.146Z,51.47
2022-11-09T14:19:17.583Z,58.58
2022-11-09T14:22:03.155Z,64.30
2022-11-09T14:27:35.234Z,49.05
2022-11-09T14:30:28.928Z,50.10
2022-11-09T14:33:34.342Z,55.20
2022-11-09T14:36:22.241Z,48.78
2022-11-09T14:39:34.221Z,55.17
2022-11-09T14:42:23.613Z,58.72
2022-11-09T14:45:16.504Z,54.78
2022-11-09T14:48:02.457Z,50.65
2022-11-09T14:50:50.370Z,64.35
2022-11-09T14:53:38.956Z,56.63
2022-11-09T14:56:25.377Z,49.25
2022-11-09T14:59:20.205Z,60.08
2022-11-09T15:02:12.227Z,57.58
2022-11-09T15:05:04.364Z,59.97
2022-11-09T15:07:50.465Z,60.75
2022-11-09T15:10:36.782Z,63.63
2022-11-09T15:13:38.129Z,65.07
2022-11-09T15:16:29.716Z,61.78
2022-11-09T15:20:01.010Z,62.55
2022-11-09T15:23:04.551Z,57.55
2022-11-09T15:25:50.478Z,69.38
2022-11-09T15:28:51.382Z,63.78
2022-11-09T15:31:37.200Z,70.28
2022-11-09T15:34:29.076Z,70.35
2022-11-09T15:37:43.054Z,72.60
2022-11-09T15:40:28.997Z,84.00
2022-11-09T15:46:01.469Z,73.72
2022-11-09T15:48:47.296Z,75.50
2022-11-09T15:51:33.228Z,72.45
2022-11-09T15:57:05.593Z,67.68
2022-11-09T15:59:51.910Z,61.65
2022-11-09T16:02:37.845Z,58.55
2022-11-09T16:05:27.645Z,61.13
2022-11-09T16:08:13.577Z,66.55
2022-11-09T16:11:05.891Z,75.00
2022-11-09T16:13:51.826Z,69.15
2022-11-09T16:16:37.639Z,72.90
2022-11-09T16:19:23.570Z,75.10
2022-11-09T16:25:16.344Z,68.47
2022-11-09T16:28:02.333Z,69.82
2022-11-09T16:30:48.243Z,68.30
2022-11-09T16:33:35.089Z,70.47
2022-11-09T16:36:25.460Z,67.22
2022-11-09T16:39:18.393Z,69.10
2022-11-09T16:42:09.098Z,68.80
2022-11-09T16:45:00.078Z,74.40
2022-11-09T16:47:52.070Z,71.15
2022-11-09T16:50:37.833Z,70.30
2022-11-09T16:53:26.946Z,65.35
2022-11-09T16:56:13.649Z,69.85
2022-11-09T16:59:00.507Z,66.53
2022-11-09T17:01:58.513Z,67.57
2022-11-09T17:04:44.771Z,63.95
2022-11-09T17:07:31.889Z,67.78
2022-11-09T17:10:17.685Z,66.00
2022-11-09T17:13:03.257Z,63.00
2022-11-09T17:15:54.347Z,69.15
2022-11-09T17:18:42.732Z,70.72
2022-11-09T17:21:29.977Z,71.32
2022-11-09T17:24:16.251Z,77.43
2022-11-09T17:27:02.268Z,66.85
2022-11-09T17:29:47.871Z,65.35
2022-11-09T17:35:20.298Z,65.70
2022-11-09T17:40:51.680Z,69.57
2022-11-09T17:43:40.704Z,61.00
2022-11-09T17:46:26.526Z,62.50
2022-11-09T17:49:12.619Z,68.65
2022-11-09T17:51:58.410Z,72.45
2022-11-09T17:54:44.805Z,68.82
2022-11-09T17:57:32.372Z,73.22
2022-11-09T18:00:19.158Z,84.00
2022-11-09T18:03:04.735Z,92.10
2022-11-09T18:05:50.635Z,79.30
2022-11-09T18:11:22.534Z,77.50
2022-11-09T18:16:54.066Z,72.68
2022-11-09T18:22:25.764Z,84.57
2022-11-09T18:27:58.066Z,84.60
2022-11-09T18:30:43.628Z,79.57
2022-11-09T18:33:30.808Z,74.50
2022-11-09T18:36:21.111Z,78.22
2022-11-09T18:39:07.328Z,75.50
2022-11-09T18:44:40.632Z,71.68
2022-11-09T18:47:26.142Z,75.15
2022-11-09T18:50:12.052Z,70.10
2022-11-09T18:55:43.585Z,79.80
2022-11-09T19:01:17.333Z,81.80
2022-11-09T19:04:03.129Z,85.97
2022-11-09T19:06:49.258Z,87.60
2022-11-09T19:09:35.651Z,82.13
2022-11-09T19:12:21.562Z,88.78
2022-11-09T19:15:08.124Z,89.80
2022-11-09T19:17:54.416Z,90.28
2022-11-09T19:20:40.102Z,94.03
2022-11-09T19:26:23.964Z,83.57
2022-11-09T19:29:13.018Z,84.32
2022-11-09T19:31:59.332Z,81.13
2022-11-09T19:34:46.629Z,71.30
2022-11-09T19:37:32.458Z,74.82
2022-11-09T19:40:18.564Z,74.80
2022-11-09T19:43:04.209Z,91.07
2022-11-09T19:45:50.656Z,76.63
2022-11-09T19:48:37.151Z,78.28
2022-11-09T19:51:24.218Z,77.45
2022-11-09T19:54:12.825Z,88.20
2022-11-09T19:56:58.564Z,93.53
2022-11-09T19:59:45.695Z,113.03
2022-11-09T20:02:31.686Z,132.23
2022-11-09T20:08:05.537Z,138.38
2022-11-09T20:10:54.295Z,143.20
2022-11-09T20:13:43.966Z,140.65
2022-11-09T20:16:33.086Z,136.13
2022-11-09T20:19:19.976Z,122.80
2022-11-09T20:22:07.079Z,123.65
2022-11-09T20:24:59.026Z,149.98
2022-11-09T20:27:45.611Z,133.35
2022-11-09T20:30:44.767Z,138.15
2022-11-09T20:33:32.748Z,142.52
2022-11-09T20:36:22.427Z,126.82
2022-11-09T20:39:11.425Z,130.20
2022-11-09T20:42:00.943Z,118.90
2022-11-09T20:44:49.837Z,124.18
2022-11-09T20:48:03.212Z,121.47
2022-11-09T20:50:44.449Z,110.63
2022-11-09T20:53:32.304Z,97.78
2022-11-09T20:56:20.771Z,107.90
2022-11-09T20:59:09.234Z,116.10
2022-11-09T21:01:56.585Z,117.97
2022-11-09T21:04:45.398Z,116.70
2022-11-09T21:07:32.245Z,118.82
2022-11-09T21:10:18.861Z,126.43
2022-11-09T21:13:09.913Z,129.18
2022-11-09T21:15:57.655Z,123.28
2022-11-09T21:18:47.450Z,128.88
2022-11-09T21:21:36.748Z,124.22
2022-11-09T21:24:41.885Z,115.28
2022-11-09T21:27:48.206Z,116.55
2022-11-09T21:30:35.107Z,106.88
2022-11-09T21:33:21.490Z,99.45
2022-11-09T21:36:15.237Z,103.78
2022-11-09T21:39:04.913Z,99.97
2022-11-09T21:41:53.331Z,92.80
2022-11-09T21:44:40.866Z,89.10
2022-11-09T21:47:27.030Z,92.93
2022-11-09T21:50:13.101Z,77.45
2022-11-09T21:52:59.279Z,74.00
2022-11-09T21:55:45.336Z,74.90
2022-11-09T21:58:31.440Z,77.03
2022-11-09T22:01:18.472Z,79.90
2022-11-09T22:04:05.987Z,72.03
2022-11-09T22:06:51.633Z,71.53
2022-11-09T22:13:02.202Z,66.60
2022-11-09T22:16:06.540Z,67.32
2022-11-09T22:19:12.423Z,68.40
2022-11-09T22:21:58.144Z,73.63
2022-11-09T22:24:44.411Z,82.90
2022-11-09T22:27:32.195Z,76.97
2022-11-09T22:30:17.911Z,88.10
2022-11-09T22:35:58.125Z,89.50
2022-11-09T22:38:45.396Z,90.28
2022-11-09T22:41:31.143Z,96.13
2022-11-09T22:44:17.162Z,98.82
2022-11-09T22:47:03.836Z,98.63
2022-11-09T22:49:49.773Z,97.43
2022-11-09T22:55:21.586Z,104.82
2022-11-09T22:58:07.622Z,107.82
2022-11-09T23:03:40.574Z,102.95
2022-11-09T23:06:27.064Z,106.47
2022-11-09T23:11:58.697Z,106.18
2022-11-09T23:15:03.067Z,107.95
2022-11-09T23:18:07.577Z,119.93
2022-11-09T23:20:53.658Z,108.00
2022-11-09T23:23:40.334Z,103.78
2022-11-09T23:26:27.805Z,103.90
2022-11-09T23:29:13.964Z,102.22
2022-11-09T23:34:45.335Z,91.45
2022-11-09T23:37:31.286Z,102.82
2022-11-09T23:40:17.589Z,90.97
2022-11-09T23:43:10.991Z,100.10
2022-11-09T23:46:00.575Z,97.05
2022-11-09T23:48:46.650Z,90.00
2022-11-09T23:51:32.555Z,82.78
2022-11-09T23:54:18.416Z,74.88
2022-11-09T23:57:04.995Z,78.20
2022-11-09T23:59:50.795Z,79.18
